sensor_id;sensor_type;location;lat;lon;timestamp;pressure;altitude;pressure_sealevel;temperature;humidity
62057;BME280;48016;50.284;18.860;2022-12-10T00:01:39;96831.04;;;0.16;92.32
62057;BME280;48016;50.284;18.860;2022-12-10T00:04:07;96829.58;;;0.15;92.09
62057;BME280;48016;50.284;18.860;2022-12-10T00:06:35;96828.02;;;0.14;92.02
62057;BME280;48016;50.284;18.860;2022-12-10T00:09:05;96832.31;;;0.15;92.27
62057;BME280;48016;50.284;18.860;2022-12-10T00:11:31;96830.73;;;0.18;92.21
62057;BME280;48016;50.284;18.860;2022-12-10T00:13:59;96836.01;;;0.20;92.07
62057;BME280;48016;50.284;18.860;2022-12-10T00:16:27;96835.92;;;0.19;91.97
62057;BME280;48016;50.284;18.860;2022-12-10T00:18:54;96835.51;;;0.21;91.98
62057;BME280;48016;50.284;18.860;2022-12-10T00:21:24;96834.19;;;0.22;92.04
62057;BME280;48016;50.284;18.860;2022-12-10T00:23:51;96834.40;;;0.22;91.95
62057;BME280;48016;50.284;18.860;2022-12-10T00:26:20;96831.94;;;0.21;91.81
62057;BME280;48016;50.284;18.860;2022-12-10T00:28:48;96832.84;;;0.21;91.94
62057;BME280;48016;50.284;18.860;2022-12-10T00:31:19;96834.13;;;0.20;91.99
62057;BME280;48016;50.284;18.860;2022-12-10T00:33:47;96836.64;;;0.16;91.78
62057;BME280;48016;50.284;18.860;2022-12-10T00:36:19;96833.61;;;0.16;91.93
62057;BME280;48016;50.284;18.860;2022-12-10T00:38:47;96836.61;;;0.15;91.83
62057;BME280;48016;50.284;18.860;2022-12-10T00:41:15;96836.84;;;0.12;91.85
62057;BME280;48016;50.284;18.860;2022-12-10T00:43:42;96836.28;;;0.09;91.89
62057;BME280;48016;50.284;18.860;2022-12-10T00:46:10;96835.00;;;0.07;92.03
62057;BME280;48016;50.284;18.860;2022-12-10T00:48:37;96829.31;;;0.07;92.09
62057;BME280;48016;50.284;18.860;2022-12-10T00:51:19;96833.27;;;0.08;92.00
62057;BME280;48016;50.284;18.860;2022-12-10T00:53:47;96838.06;;;0.06;92.08
62057;BME280;48016;50.284;18.860;2022-12-10T00:56:17;96837.22;;;0.05;92.00
62057;BME280;48016;50.284;18.860;2022-12-10T00:58:45;96840.81;;;0.06;92.10
62057;BME280;48016;50.284;18.860;2022-12-10T01:03:54;96844.60;;;0.04;92.08
62057;BME280;48016;50.284;18.860;2022-12-10T01:06:27;96846.56;;;0.04;92.15
62057;BME280;48016;50.284;18.860;2022-12-10T01:08:56;96850.28;;;0.04;92.15
62057;BME280;48016;50.284;18.860;2022-12-10T01:11:28;96850.23;;;0.04;92.18
62057;BME280;48016;50.284;18.860;2022-12-10T01:13:55;96850.59;;;0.06;91.94
62057;BME280;48016;50.284;18.860;2022-12-10T01:16:22;96851.63;;;0.07;92.03
62057;BME280;48016;50.284;18.860;2022-12-10T01:18:51;96852.65;;;0.07;92.02
62057;BME280;48016;50.284;18.860;2022-12-10T01:21:18;96850.27;;;0.04;91.93
62057;BME280;48016;50.284;18.860;2022-12-10T01:23:48;96848.48;;;0.00;92.03
62057;BME280;48016;50.284;18.860;2022-12-10T01:26:19;96845.27;;;-0.01;92.18
62057;BME280;48016;50.284;18.860;2022-12-10T01:28:46;96852.02;;;-0.01;92.15
62057;BME280;48016;50.284;18.860;2022-12-10T01:31:19;96855.09;;;-0.05;92.10
62057;BME280;48016;50.284;18.860;2022-12-10T01:33:47;96858.64;;;-0.05;92.20
62057;BME280;48016;50.284;18.860;2022-12-10T01:36:22;96862.97;;;-0.02;92.18
62057;BME280;48016;50.284;18.860;2022-12-10T01:38:49;96862.52;;;-0.01;92.07
62057;BME280;48016;50.284;18.860;2022-12-10T01:41:26;96867.26;;;-0.01;92.24
62057;BME280;48016;50.284;18.860;2022-12-10T01:46:26;96874.14;;;0.02;92.21
62057;BME280;48016;50.284;18.860;2022-12-10T01:48:53;96868.48;;;0.03;92.11
62057;BME280;48016;50.284;18.860;2022-12-10T01:51:21;96866.43;;;0.04;92.06
62057;BME280;48016;50.284;18.860;2022-12-10T01:53:49;96868.16;;;0.03;92.05
62057;BME280;48016;50.284;18.860;2022-12-10T01:56:17;96865.18;;;0.05;92.01
62057;BME280;48016;50.284;18.860;2022-12-10T01:58:45;96870.98;;;0.07;92.04
62057;BME280;48016;50.284;18.860;2022-12-10T02:01:45;96865.86;;;0.07;92.10
62057;BME280;48016;50.284;18.860;2022-12-10T02:07:27;96865.27;;;0.05;92.13
62057;BME280;48016;50.284;18.860;2022-12-10T02:15:33;96880.77;;;0.04;92.06
62057;BME280;48016;50.284;18.860;2022-12-10T02:20:48;96898.06;;;0.08;92.09
62057;BME280;48016;50.284;18.860;2022-12-10T02:23:30;96900.52;;;0.12;91.93
62057;BME280;48016;50.284;18.860;2022-12-10T02:26:03;96900.98;;;0.13;91.90
62057;BME280;48016;50.284;18.860;2022-12-10T02:31:25;96900.23;;;0.13;91.78
62057;BME280;48016;50.284;18.860;2022-12-10T02:33:57;96893.21;;;0.13;91.76
62057;BME280;48016;50.284;18.860;2022-12-10T02:36:28;96894.73;;;0.14;91.67
62057;BME280;48016;50.284;18.860;2022-12-10T02:38:56;96892.82;;;0.12;91.62
62057;BME280;48016;50.284;18.860;2022-12-10T02:41:30;96889.63;;;0.09;91.70
62057;BME280;48016;50.284;18.860;2022-12-10T02:44:02;96886.10;;;0.06;91.92
62057;BME280;48016;50.284;18.860;2022-12-10T02:46:32;96877.01;;;0.04;91.87
62057;BME280;48016;50.284;18.860;2022-12-10T02:49:02;96879.02;;;0.03;92.03
62057;BME280;48016;50.284;18.860;2022-12-10T02:51:29;96884.03;;;0.05;92.00
62057;BME280;48016;50.284;18.860;2022-12-10T02:54:01;96889.20;;;0.07;91.97
62057;BME280;48016;50.284;18.860;2022-12-10T02:56:45;96885.06;;;0.07;91.76
62057;BME280;48016;50.284;18.860;2022-12-10T03:02:02;96884.80;;;0.07;91.84
62057;BME280;48016;50.284;18.860;2022-12-10T03:05:01;96887.10;;;0.08;91.82
62057;BME280;48016;50.284;18.860;2022-12-10T03:07:55;96880.40;;;0.08;91.78
62057;BME280;48016;50.284;18.860;2022-12-10T03:10:29;96890.58;;;0.08;91.69
62057;BME280;48016;50.284;18.860;2022-12-10T03:13:00;96897.04;;;0.09;91.90
62057;BME280;48016;50.284;18.860;2022-12-10T03:15:31;96898.11;;;0.07;91.78
62057;BME280;48016;50.284;18.860;2022-12-10T03:18:02;96893.06;;;0.05;91.78
62057;BME280;48016;50.284;18.860;2022-12-10T03:20:32;96894.85;;;0.03;92.01
62057;BME280;48016;50.284;18.860;2022-12-10T03:22:59;96898.13;;;0.01;91.91
62057;BME280;48016;50.284;18.860;2022-12-10T03:25:29;96895.52;;;0.01;91.95
62057;BME280;48016;50.284;18.860;2022-12-10T03:27:58;96897.18;;;-0.01;91.92
62057;BME280;48016;50.284;18.860;2022-12-10T03:30:26;96902.11;;;0.01;91.91
62057;BME280;48016;50.284;18.860;2022-12-10T03:32:55;96901.95;;;0.01;91.96
62057;BME280;48016;50.284;18.860;2022-12-10T03:35:23;96901.68;;;0.03;91.98
62057;BME280;48016;50.284;18.860;2022-12-10T03:37:51;96909.52;;;0.06;92.00
62057;BME280;48016;50.284;18.860;2022-12-10T03:40:22;96919.44;;;0.08;91.92
62057;BME280;48016;50.284;18.860;2022-12-10T03:42:49;96922.84;;;0.08;91.81
62057;BME280;48016;50.284;18.860;2022-12-10T03:45:16;96925.15;;;0.07;91.75
62057;BME280;48016;50.284;18.860;2022-12-10T03:47:42;96927.42;;;0.11;91.97
62057;BME280;48016;50.284;18.860;2022-12-10T03:50:10;96930.05;;;0.13;91.90
62057;BME280;48016;50.284;18.860;2022-12-10T03:52:37;96929.69;;;0.13;91.89
62057;BME280;48016;50.284;18.860;2022-12-10T03:55:04;96928.21;;;0.17;91.91
62057;BME280;48016;50.284;18.860;2022-12-10T03:57:33;96930.71;;;0.21;91.79
62057;BME280;48016;50.284;18.860;2022-12-10T04:00:00;96928.95;;;0.20;91.56
62057;BME280;48016;50.284;18.860;2022-12-10T04:02:27;96923.19;;;0.17;91.59
62057;BME280;48016;50.284;18.860;2022-12-10T04:04:55;96919.15;;;0.15;91.53
62057;BME280;48016;50.284;18.860;2022-12-10T04:07:21;96920.92;;;0.14;91.59
62057;BME280;48016;50.284;18.860;2022-12-10T04:09:48;96938.41;;;0.14;91.52
62057;BME280;48016;50.284;18.860;2022-12-10T04:12:15;96940.27;;;0.14;91.59
62057;BME280;48016;50.284;18.860;2022-12-10T04:14:41;96945.56;;;0.13;91.46
62057;BME280;48016;50.284;18.860;2022-12-10T04:17:26;96945.32;;;0.14;91.58
62057;BME280;48016;50.284;18.860;2022-12-10T04:19:53;96939.83;;;0.17;91.45
62057;BME280;48016;50.284;18.860;2022-12-10T04:22:20;96944.98;;;0.15;91.32
62057;BME280;48016;50.284;18.860;2022-12-10T04:25:05;96949.39;;;0.13;91.38
62057;BME280;48016;50.284;18.860;2022-12-10T04:27:50;96955.13;;;0.13;91.21
62057;BME280;48016;50.284;18.860;2022-12-10T04:30:17;96953.85;;;0.13;91.40
62057;BME280;48016;50.284;18.860;2022-12-10T04:32:44;96958.16;;;0.13;91.15
62057;BME280;48016;50.284;18.860;2022-12-10T04:35:11;96956.23;;;0.13;91.26
62057;BME280;48016;50.284;18.860;2022-12-10T04:37:37;96963.11;;;0.11;91.31
62057;BME280;48016;50.284;18.860;2022-12-10T04:40:05;96966.66;;;0.08;91.22
62057;BME280;48016;50.284;18.860;2022-12-10T04:42:32;96974.33;;;0.06;91.33
62057;BME280;48016;50.284;18.860;2022-12-10T04:44:59;96973.85;;;0.05;91.32
62057;BME280;48016;50.284;18.860;2022-12-10T04:47:25;96970.77;;;0.04;91.49
62057;BME280;48016;50.284;18.860;2022-12-10T04:49:52;96979.23;;;0.07;91.36
62057;BME280;48016;50.284;18.860;2022-12-10T04:52:19;96983.38;;;0.08;91.34
62057;BME280;48016;50.284;18.860;2022-12-10T04:54:45;96985.45;;;0.07;91.29
62057;BME280;48016;50.284;18.860;2022-12-10T04:57:12;96990.33;;;0.08;91.31
62057;BME280;48016;50.284;18.860;2022-12-10T04:59:39;96989.02;;;0.12;91.41
62057;BME280;48016;50.284;18.860;2022-12-10T05:02:06;96983.26;;;0.15;91.24
62057;BME280;48016;50.284;18.860;2022-12-10T05:04:33;96986.16;;;0.20;91.25
62057;BME280;48016;50.284;18.860;2022-12-10T05:07:00;96985.14;;;0.19;90.81
62057;BME280;48016;50.284;18.860;2022-12-10T05:09:27;96987.66;;;0.18;90.85
62057;BME280;48016;50.284;18.860;2022-12-10T05:11:53;96988.42;;;0.15;90.95
62057;BME280;48016;50.284;18.860;2022-12-10T05:14:20;96992.23;;;0.13;90.90
62057;BME280;48016;50.284;18.860;2022-12-10T05:16:49;96998.82;;;0.14;90.99
62057;BME280;48016;50.284;18.860;2022-12-10T05:19:17;97000.60;;;0.16;91.10
62057;BME280;48016;50.284;18.860;2022-12-10T05:21:45;97001.31;;;0.14;90.87
62057;BME280;48016;50.284;18.860;2022-12-10T05:24:31;97008.46;;;0.14;90.97
62057;BME280;48016;50.284;18.860;2022-12-10T05:26:57;97003.67;;;0.15;90.95
62057;BME280;48016;50.284;18.860;2022-12-10T05:29:24;97004.55;;;0.16;90.94
62057;BME280;48016;50.284;18.860;2022-12-10T05:31:51;97003.30;;;0.19;90.86
62057;BME280;48016;50.284;18.860;2022-12-10T05:34:18;97004.98;;;0.18;90.70
62057;BME280;48016;50.284;18.860;2022-12-10T05:36:44;97000.84;;;0.15;90.82
62057;BME280;48016;50.284;18.860;2022-12-10T05:39:11;97002.73;;;0.14;90.74
62057;BME280;48016;50.284;18.860;2022-12-10T05:41:38;96999.79;;;0.15;90.87
62057;BME280;48016;50.284;18.860;2022-12-10T05:44:06;96995.98;;;0.12;90.75
62057;BME280;48016;50.284;18.860;2022-12-10T05:46:34;96992.52;;;0.10;90.96
62057;BME280;48016;50.284;18.860;2022-12-10T05:49:03;96990.44;;;0.10;90.78
62057;BME280;48016;50.284;18.860;2022-12-10T05:51:33;96992.71;;;0.08;90.74
62057;BME280;48016;50.284;18.860;2022-12-10T05:54:01;96994.30;;;0.08;90.94
62057;BME280;48016;50.284;18.860;2022-12-10T05:56:28;96992.70;;;0.08;90.87
62057;BME280;48016;50.284;18.860;2022-12-10T05:58:58;96989.72;;;0.09;90.92
62057;BME280;48016;50.284;18.860;2022-12-10T06:01:27;96979.03;;;0.07;90.83
62057;BME280;48016;50.284;18.860;2022-12-10T06:03:54;96973.35;;;0.06;90.80
62057;BME280;48016;50.284;18.860;2022-12-10T06:06:25;96971.61;;;0.04;90.86
62057;BME280;48016;50.284;18.860;2022-12-10T06:08:53;96964.01;;;0.00;90.82
62057;BME280;48016;50.284;18.860;2022-12-10T06:11:20;96960.01;;;-0.06;91.05
62057;BME280;48016;50.284;18.860;2022-12-10T06:13:46;96954.89;;;-0.08;91.15
62057;BME280;48016;50.284;18.860;2022-12-10T06:16:14;96965.59;;;-0.07;91.23
62057;BME280;48016;50.284;18.860;2022-12-10T06:18:41;96974.85;;;-0.06;91.34
62057;BME280;48016;50.284;18.860;2022-12-10T06:21:14;96986.43;;;-0.03;91.33
62057;BME280;48016;50.284;18.860;2022-12-10T06:23:41;96995.91;;;-0.01;91.37
62057;BME280;48016;50.284;18.860;2022-12-10T06:26:09;97001.95;;;0.04;91.31
62057;BME280;48016;50.284;18.860;2022-12-10T06:28:37;97009.19;;;0.03;91.17
62057;BME280;48016;50.284;18.860;2022-12-10T06:31:04;97017.76;;;0.05;90.99
62057;BME280;48016;50.284;18.860;2022-12-10T06:33:31;97025.50;;;0.04;91.01
62057;BME280;48016;50.284;18.860;2022-12-10T06:35:57;97028.44;;;0.03;91.02
62057;BME280;48016;50.284;18.860;2022-12-10T06:38:24;97025.82;;;0.04;91.10
62057;BME280;48016;50.284;18.860;2022-12-10T06:40:51;97039.86;;;0.06;91.13
62057;BME280;48016;50.284;18.860;2022-12-10T06:43:19;97052.38;;;0.05;90.99
62057;BME280;48016;50.284;18.860;2022-12-10T06:45:45;97059.84;;;0.07;90.86
62057;BME280;48016;50.284;18.860;2022-12-10T06:48:12;97055.17;;;0.08;90.97
62057;BME280;48016;50.284;18.860;2022-12-10T06:50:38;97058.60;;;0.09;90.81
62057;BME280;48016;50.284;18.860;2022-12-10T06:53:05;97054.45;;;0.07;90.89
62057;BME280;48016;50.284;18.860;2022-12-10T06:55:31;97060.23;;;0.09;90.96
62057;BME280;48016;50.284;18.860;2022-12-10T06:57:58;97063.19;;;0.13;90.99
62057;BME280;48016;50.284;18.860;2022-12-10T07:00:25;97064.16;;;0.14;90.80
62057;BME280;48016;50.284;18.860;2022-12-10T07:02:51;97067.83;;;0.15;90.78
62057;BME280;48016;50.284;18.860;2022-12-10T07:05:18;97067.20;;;0.16;90.76
62057;BME280;48016;50.284;18.860;2022-12-10T07:07:45;97076.40;;;0.17;90.64
62057;BME280;48016;50.284;18.860;2022-12-10T07:10:12;97076.30;;;0.18;90.58
62057;BME280;48016;50.284;18.860;2022-12-10T07:12:38;97066.63;;;0.16;90.56
62057;BME280;48016;50.284;18.860;2022-12-10T07:15:05;97054.45;;;0.16;90.62
62057;BME280;48016;50.284;18.860;2022-12-10T07:17:32;97058.52;;;0.18;90.66
62057;BME280;48016;50.284;18.860;2022-12-10T07:19:59;97060.29;;;0.17;90.41
62057;BME280;48016;50.284;18.860;2022-12-10T07:22:26;97060.69;;;0.18;90.41
62057;BME280;48016;50.284;18.860;2022-12-10T07:24:52;97066.49;;;0.17;90.38
62057;BME280;48016;50.284;18.860;2022-12-10T07:27:19;97068.67;;;0.17;90.28
62057;BME280;48016;50.284;18.860;2022-12-10T07:29:46;97074.36;;;0.16;90.50
62057;BME280;48016;50.284;18.860;2022-12-10T07:32:12;97073.70;;;0.17;90.36
62057;BME280;48016;50.284;18.860;2022-12-10T07:34:39;97075.05;;;0.17;90.30
62057;BME280;48016;50.284;18.860;2022-12-10T07:37:06;97079.60;;;0.16;90.29
62057;BME280;48016;50.284;18.860;2022-12-10T07:39:33;97087.26;;;0.14;90.17
62057;BME280;48016;50.284;18.860;2022-12-10T07:42:00;97090.89;;;0.15;90.30
62057;BME280;48016;50.284;18.860;2022-12-10T07:44:26;97092.13;;;0.15;90.45
62057;BME280;48016;50.284;18.860;2022-12-10T07:46:54;97097.35;;;0.19;90.53
62057;BME280;48016;50.284;18.860;2022-12-10T07:49:21;97101.31;;;0.24;90.40
62057;BME280;48016;50.284;18.860;2022-12-10T07:51:49;97107.70;;;0.27;90.23
62057;BME280;48016;50.284;18.860;2022-12-10T07:54:17;97112.06;;;0.25;90.15
62057;BME280;48016;50.284;18.860;2022-12-10T07:56:44;97108.88;;;0.25;90.22
62057;BME280;48016;50.284;18.860;2022-12-10T07:59:11;97100.74;;;0.24;90.14
62057;BME280;48016;50.284;18.860;2022-12-10T08:01:37;97101.86;;;0.22;90.34
62057;BME280;48016;50.284;18.860;2022-12-10T08:04:04;97096.60;;;0.21;90.22
62057;BME280;48016;50.284;18.860;2022-12-10T08:06:31;97094.91;;;0.18;90.40
62057;BME280;48016;50.284;18.860;2022-12-10T08:08:58;97090.59;;;0.17;90.49
62057;BME280;48016;50.284;18.860;2022-12-10T08:11:26;97093.70;;;0.20;90.53
62057;BME280;48016;50.284;18.860;2022-12-10T08:13:54;97093.63;;;0.26;90.78
62057;BME280;48016;50.284;18.860;2022-12-10T08:16:21;97092.88;;;0.31;90.51
62057;BME280;48016;50.284;18.860;2022-12-10T08:18:59;97090.30;;;0.30;90.36
62057;BME280;48016;50.284;18.860;2022-12-10T08:21:28;97085.46;;;0.32;90.39
62057;BME280;48016;50.284;18.860;2022-12-10T08:23:56;97079.20;;;0.31;90.29
62057;BME280;48016;50.284;18.860;2022-12-10T08:26:25;97080.91;;;0.29;90.24
62057;BME280;48016;50.284;18.860;2022-12-10T08:28:53;97085.14;;;0.32;90.36
62057;BME280;48016;50.284;18.860;2022-12-10T08:31:21;97084.38;;;0.29;90.31
62057;BME280;48016;50.284;18.860;2022-12-10T08:33:48;97080.56;;;0.27;90.44
62057;BME280;48016;50.284;18.860;2022-12-10T08:36:17;97075.76;;;0.24;90.51
62057;BME280;48016;50.284;18.860;2022-12-10T08:38:44;97081.53;;;0.23;90.45
62057;BME280;48016;50.284;18.860;2022-12-10T08:41:13;97079.36;;;0.24;90.58
62057;BME280;48016;50.284;18.860;2022-12-10T08:43:40;97088.06;;;0.25;90.68
62057;BME280;48016;50.284;18.860;2022-12-10T08:46:08;97092.98;;;0.27;90.81
62057;BME280;48016;50.284;18.860;2022-12-10T08:48:36;97094.58;;;0.31;90.60
62057;BME280;48016;50.284;18.860;2022-12-10T08:51:03;97102.45;;;0.33;90.59
62057;BME280;48016;50.284;18.860;2022-12-10T08:53:30;97106.50;;;0.26;90.36
62057;BME280;48016;50.284;18.860;2022-12-10T08:55:57;97104.05;;;0.23;90.49
62057;BME280;48016;50.284;18.860;2022-12-10T08:58:24;97104.70;;;0.25;90.54
62057;BME280;48016;50.284;18.860;2022-12-10T09:00:52;97101.52;;;0.24;90.34
62057;BME280;48016;50.284;18.860;2022-12-10T09:03:18;97100.71;;;0.23;90.32
62057;BME280;48016;50.284;18.860;2022-12-10T09:05:45;97106.02;;;0.23;90.44
62057;BME280;48016;50.284;18.860;2022-12-10T09:08:12;97105.02;;;0.26;90.59
62057;BME280;48016;50.284;18.860;2022-12-10T09:10:39;97106.75;;;0.26;90.28
62057;BME280;48016;50.284;18.860;2022-12-10T09:13:06;97103.89;;;0.26;90.40
62057;BME280;48016;50.284;18.860;2022-12-10T09:15:33;97098.39;;;0.23;90.25
62057;BME280;48016;50.284;18.860;2022-12-10T09:18:00;97095.69;;;0.22;90.25
62057;BME280;48016;50.284;18.860;2022-12-10T09:20:27;97092.36;;;0.25;90.50
62057;BME280;48016;50.284;18.860;2022-12-10T09:22:53;97084.93;;;0.27;90.38
62057;BME280;48016;50.284;18.860;2022-12-10T09:25:20;97082.86;;;0.27;90.19
62057;BME280;48016;50.284;18.860;2022-12-10T09:27:48;97082.89;;;0.21;90.07
62057;BME280;48016;50.284;18.860;2022-12-10T09:30:16;97084.70;;;0.20;90.26
62057;BME280;48016;50.284;18.860;2022-12-10T09:32:43;97089.66;;;0.20;90.31
62057;BME280;48016;50.284;18.860;2022-12-10T09:35:10;97088.30;;;0.17;90.22
62057;BME280;48016;50.284;18.860;2022-12-10T09:37:36;97083.77;;;0.16;90.15
62057;BME280;48016;50.284;18.860;2022-12-10T09:40:03;97083.62;;;0.15;90.22
62057;BME280;48016;50.284;18.860;2022-12-10T09:53:24;97071.41;;;-0.02;90.55
62057;BME280;48016;50.284;18.860;2022-12-10T09:55:53;97072.86;;;-0.04;90.53
62057;BME280;48016;50.284;18.860;2022-12-10T09:58:22;97066.62;;;-0.02;90.83
62057;BME280;48016;50.284;18.860;2022-12-10T10:01:02;97071.59;;;0.05;90.72
62057;BME280;48016;50.284;18.860;2022-12-10T10:03:40;97073.61;;;0.08;90.63
62057;BME280;48016;50.284;18.860;2022-12-10T10:06:12;97065.36;;;0.11;90.55
62057;BME280;48016;50.284;18.860;2022-12-10T10:08:47;97059.94;;;0.11;90.39
62057;BME280;48016;50.284;18.860;2022-12-10T10:11:22;97062.96;;;0.11;90.39
62057;BME280;48016;50.284;18.860;2022-12-10T10:13:52;97066.42;;;0.08;90.56
62057;BME280;48016;50.284;18.860;2022-12-10T10:16:32;97070.17;;;0.10;90.72
62057;BME280;48016;50.284;18.860;2022-12-10T10:19:05;97083.11;;;0.12;90.58
62057;BME280;48016;50.284;18.860;2022-12-10T10:21:40;97084.96;;;0.14;90.47
62057;BME280;48016;50.284;18.860;2022-12-10T10:24:13;97080.59;;;0.14;90.54
62057;BME280;48016;50.284;18.860;2022-12-10T10:26:41;97075.30;;;0.20;90.67
62057;BME280;48016;50.284;18.860;2022-12-10T10:29:11;97067.16;;;0.25;90.54
62057;BME280;48016;50.284;18.860;2022-12-10T10:31:41;97067.53;;;0.29;90.48
62057;BME280;48016;50.284;18.860;2022-12-10T10:34:20;97078.36;;;0.34;90.37
62057;BME280;48016;50.284;18.860;2022-12-10T10:36:56;97078.75;;;0.40;90.47
62057;BME280;48016;50.284;18.860;2022-12-10T10:39:31;97085.45;;;0.43;90.47
62057;BME280;48016;50.284;18.860;2022-12-10T10:41:59;97084.91;;;0.43;90.22
62057;BME280;48016;50.284;18.860;2022-12-10T10:44:33;97081.71;;;0.47;90.44
62057;BME280;48016;50.284;18.860;2022-12-10T10:47:01;97079.55;;;0.51;90.28
62057;BME280;48016;50.284;18.860;2022-12-10T10:49:33;97084.62;;;0.50;89.94
62057;BME280;48016;50.284;18.860;2022-12-10T10:52:04;97072.38;;;0.40;89.83
62057;BME280;48016;50.284;18.860;2022-12-10T10:54:33;97064.31;;;0.32;89.96
62057;BME280;48016;50.284;18.860;2022-12-10T10:57:13;97062.69;;;0.22;90.14
62057;BME280;48016;50.284;18.860;2022-12-10T10:59:41;97071.17;;;0.20;90.29
62057;BME280;48016;50.284;18.860;2022-12-10T11:04:52;97068.58;;;0.10;90.45
62057;BME280;48016;50.284;18.860;2022-12-10T11:09:48;97083.04;;;0.12;90.44
62057;BME280;48016;50.284;18.860;2022-12-10T11:12:28;97078.28;;;0.13;90.37
62057;BME280;48016;50.284;18.860;2022-12-10T11:14:56;97075.51;;;0.11;90.21
62057;BME280;48016;50.284;18.860;2022-12-10T11:17:25;97072.90;;;0.06;90.23
62057;BME280;48016;50.284;18.860;2022-12-10T11:23:16;97079.31;;;0.02;90.36
62057;BME280;48016;50.284;18.860;2022-12-10T11:30:47;97066.15;;;0.14;90.54
62057;BME280;48016;50.284;18.860;2022-12-10T11:44:38;97072.65;;;0.25;89.82
62057;BME280;48016;50.284;18.860;2022-12-10T11:50:00;97072.44;;;0.13;90.30
62057;BME280;48016;50.284;18.860;2022-12-10T11:52:54;97058.88;;;0.11;90.25
62057;BME280;48016;50.284;18.860;2022-12-10T12:01:13;97064.16;;;-0.00;90.62
62057;BME280;48016;50.284;18.860;2022-12-10T12:14:13;97072.39;;;-0.02;90.69
62057;BME280;48016;50.284;18.860;2022-12-10T12:16:47;97069.08;;;-0.03;90.81
62057;BME280;48016;50.284;18.860;2022-12-10T12:19:22;97067.65;;;-0.03;90.81
62057;BME280;48016;50.284;18.860;2022-12-10T12:21:50;97072.58;;;-0.05;90.65
62057;BME280;48016;50.284;18.860;2022-12-10T12:24:38;97066.92;;;-0.04;90.73
62057;BME280;48016;50.284;18.860;2022-12-10T12:27:45;97060.88;;;-0.05;90.82
62057;BME280;48016;50.284;18.860;2022-12-10T12:30:14;97057.42;;;-0.07;90.88
62057;BME280;48016;50.284;18.860;2022-12-10T12:35:14;97055.21;;;-0.01;91.01
62057;BME280;48016;50.284;18.860;2022-12-10T12:37:55;97054.27;;;-0.01;90.93
62057;BME280;48016;50.284;18.860;2022-12-10T12:40:27;97054.58;;;0.03;90.83
62057;BME280;48016;50.284;18.860;2022-12-10T12:43:04;97059.38;;;0.05;90.72
62057;BME280;48016;50.284;18.860;2022-12-10T12:45:43;97061.98;;;0.05;90.85
62057;BME280;48016;50.284;18.860;2022-12-10T12:51:13;97059.98;;;0.18;91.12
62057;BME280;48016;50.284;18.860;2022-12-10T12:53:42;97068.98;;;0.22;90.80
62057;BME280;48016;50.284;18.860;2022-12-10T12:56:42;97059.34;;;0.21;90.59
62057;BME280;48016;50.284;18.860;2022-12-10T13:04:43;97064.85;;;0.14;91.11
62057;BME280;48016;50.284;18.860;2022-12-10T13:07:31;97065.05;;;0.14;90.83
62057;BME280;48016;50.284;18.860;2022-12-10T13:15:22;97071.64;;;0.05;90.94
62057;BME280;48016;50.284;18.860;2022-12-10T13:18:20;97061.40;;;0.02;91.17
62057;BME280;48016;50.284;18.860;2022-12-10T13:28:48;97074.48;;;0.08;91.06
62057;BME280;48016;50.284;18.860;2022-12-10T13:34:19;97073.25;;;0.03;90.96
62057;BME280;48016;50.284;18.860;2022-12-10T13:45:04;97075.63;;;-0.08;91.30
62057;BME280;48016;50.284;18.860;2022-12-10T13:47:52;97087.20;;;-0.04;91.17
62057;BME280;48016;50.284;18.860;2022-12-10T13:50:35;97103.37;;;-0.01;91.20
62057;BME280;48016;50.284;18.860;2022-12-10T13:55:53;97102.98;;;0.04;91.35
62057;BME280;48016;50.284;18.860;2022-12-10T13:58:54;97109.70;;;0.06;91.36
62057;BME280;48016;50.284;18.860;2022-12-10T14:06:53;97109.51;;;0.04;91.05
62057;BME280;48016;50.284;18.860;2022-12-10T14:09:27;97108.84;;;0.01;90.97
62057;BME280;48016;50.284;18.860;2022-12-10T14:12:10;97112.61;;;-0.01;90.96
62057;BME280;48016;50.284;18.860;2022-12-10T14:14:47;97102.61;;;-0.04;91.10
62057;BME280;48016;50.284;18.860;2022-12-10T14:17:21;97101.40;;;-0.06;91.06
62057;BME280;48016;50.284;18.860;2022-12-10T14:19:53;97099.14;;;-0.08;90.89
62057;BME280;48016;50.284;18.860;2022-12-10T14:24:59;97100.95;;;-0.11;91.41
62057;BME280;48016;50.284;18.860;2022-12-10T14:27:27;97104.86;;;-0.09;91.42
62057;BME280;48016;50.284;18.860;2022-12-10T14:30:05;97107.46;;;-0.11;91.33
62057;BME280;48016;50.284;18.860;2022-12-10T14:32:35;97103.80;;;-0.09;91.58
62057;BME280;48016;50.284;18.860;2022-12-10T14:35:05;97111.99;;;-0.07;91.48
62057;BME280;48016;50.284;18.860;2022-12-10T14:37:40;97121.36;;;-0.07;91.61
62057;BME280;48016;50.284;18.860;2022-12-10T14:40:08;97117.86;;;-0.08;91.60
62057;BME280;48016;50.284;18.860;2022-12-10T14:42:38;97115.56;;;-0.13;91.53
62057;BME280;48016;50.284;18.860;2022-12-10T14:45:06;97118.23;;;-0.15;91.59
62057;BME280;48016;50.284;18.860;2022-12-10T14:47:38;97120.00;;;-0.17;91.57
62057;BME280;48016;50.284;18.860;2022-12-10T14:50:10;97124.13;;;-0.17;91.61
62057;BME280;48016;50.284;18.860;2022-12-10T14:53:00;97124.70;;;-0.18;91.61
62057;BME280;48016;50.284;18.860;2022-12-10T14:55:27;97129.22;;;-0.21;91.62
62057;BME280;48016;50.284;18.860;2022-12-10T14:58:00;97126.91;;;-0.22;91.72
62057;BME280;48016;50.284;18.860;2022-12-10T15:00:28;97121.25;;;-0.21;91.94
62057;BME280;48016;50.284;18.860;2022-12-10T15:02:58;97118.36;;;-0.22;91.65
62057;BME280;48016;50.284;18.860;2022-12-10T15:05:31;97120.55;;;-0.21;91.82
62057;BME280;48016;50.284;18.860;2022-12-10T15:08:07;97117.06;;;-0.22;91.86
62057;BME280;48016;50.284;18.860;2022-12-10T15:10:43;97116.74;;;-0.24;91.70
62057;BME280;48016;50.284;18.860;2022-12-10T15:13:19;97123.05;;;-0.26;91.90
62057;BME280;48016;50.284;18.860;2022-12-10T15:15:50;97122.23;;;-0.28;91.98
62057;BME280;48016;50.284;18.860;2022-12-10T15:18:27;97121.20;;;-0.32;92.00